Time;durP1;ratioP1;P1;durP2;ratioP2;P2;SDS_P1;SDS_P2;PMS_P1;PMS_P2;Temp;Humidity;BMP_temperature;BMP_pressure;BME280_temperature;BME280_humidity;BME280_pressure;Samples;Min_cycle;Max_cycle;Signal;HPM_P1;HPM_P2
2023/07/27 00:00:07;;;;;;;13.10;4.95;;;14.00;99.90;;;;;;4986275;28;20042;-78
2023/07/27 00:02:33;;;;;;;10.48;5.05;;;14.00;99.90;;;;;;4972184;28;20033;-78
2023/07/27 00:04:58;;;;;;;10.35;4.72;;;14.00;99.90;;;;;;4988661;28;20041;-79
2023/07/27 00:07:25;;;;;;;9.88;4.53;;;13.90;99.90;;;;;;5005368;28;20049;-79
2023/07/27 00:09:50;;;;;;;13.15;4.80;;;13.90;99.90;;;;;;4988743;28;20042;-78
2023/07/27 00:12:16;;;;;;;11.23;4.90;;;13.90;99.90;;;;;;5002135;28;20475;-79
2023/07/27 00:14:42;;;;;;;11.25;4.70;;;13.90;99.90;;;;;;5006260;28;20050;-78
2023/07/27 00:17:08;;;;;;;10.23;4.75;;;13.90;99.90;;;;;;5002995;28;20053;-78
2023/07/27 00:19:33;;;;;;;12.55;5.10;;;13.80;99.90;;;;;;5003941;28;20044;-78
2023/07/27 00:22:00;;;;;;;10.73;4.78;;;13.80;99.90;;;;;;4987887;28;20487;-78
2023/07/27 00:24:25;;;;;;;10.38;5.10;;;13.80;99.90;;;;;;4988856;28;20065;-79
2023/07/27 00:26:51;;;;;;;10.27;4.78;;;13.70;99.90;;;;;;4991401;28;20058;-79
2023/07/27 00:29:17;;;;;;;10.80;5.05;;;12.90;99.90;;;;;;5003442;28;20041;-78
2023/07/27 00:31:42;;;;;;;10.50;5.05;;;13.70;99.90;;;;;;4983810;28;20046;-79
2023/07/27 00:34:08;;;;;;;11.65;5.07;;;13.70;99.90;;;;;;5003217;28;20029;-79
2023/07/27 00:36:34;;;;;;;12.65;5.47;;;13.70;99.90;;;;;;5005378;28;20030;-79
2023/07/27 00:38:59;;;;;;;10.90;4.82;;;13.70;99.90;;;;;;4987431;28;20041;-79
2023/07/27 00:41:25;;;;;;;10.70;4.75;;;13.70;99.90;;;;;;4972146;28;20495;-78
2023/07/27 00:43:51;;;;;;;11.65;5.40;;;13.60;99.90;;;;;;5002270;28;20045;-78
2023/07/27 00:46:16;;;;;;;13.20;5.72;;;13.60;99.90;;;;;;5003388;28;20041;-79
2023/07/27 00:48:42;;;;;;;10.60;4.85;;;13.60;99.90;;;;;;4986846;28;20766;-79
2023/07/27 00:51:09;;;;;;;11.77;5.25;;;13.60;99.90;;;;;;5004892;28;20472;-79
2023/07/27 00:53:35;;;;;;;10.98;4.85;;;13.60;99.90;;;;;;5002907;28;20034;-79
2023/07/27 00:56:02;;;;;;;11.45;5.38;;;13.60;99.90;;;;;;4987599;28;20037;-79
2023/07/27 00:58:28;;;;;;;11.25;4.63;;;13.60;99.90;;;;;;5004698;28;20388;-79
2023/07/27 01:00:54;;;;;;;11.38;5.43;;;13.60;99.90;;;;;;5018207;28;20717;-79
2023/07/27 01:03:20;;;;;;;12.30;4.78;;;13.60;99.90;;;;;;5002897;28;20041;-79
2023/07/27 01:05:46;;;;;;;10.40;5.13;;;13.60;99.90;;;;;;5001221;28;20037;-79
2023/07/27 01:08:12;;;;;;;12.77;5.00;;;13.60;99.90;;;;;;5004438;28;20139;-79
2023/07/27 01:10:49;;;;;;;11.15;4.93;;;13.50;99.90;;;;;;5005543;28;20096;-79
2023/07/27 01:13:41;;;;;;;13.55;5.10;;;13.60;99.90;;;;;;5001617;28;20036;-79
2023/07/27 01:16:24;;;;;;;11.05;5.00;;;13.60;99.90;;;;;;5017219;28;20522;-78
2023/07/27 01:19:11;;;;;;;10.75;5.45;;;13.60;99.90;;;;;;4987455;28;20049;-78
2023/07/27 01:21:43;;;;;;;10.43;4.93;;;13.60;99.90;;;;;;5003087;28;20037;-79
2023/07/27 01:24:25;;;;;;;12.23;5.30;;;13.60;99.90;;;;;;5004423;28;20062;-78
2023/07/27 01:27:32;;;;;;;10.80;5.13;;;13.60;99.90;;;;;;5001849;28;20534;-79
2023/07/27 01:30:09;;;;;;;11.25;5.00;;;13.60;99.90;;;;;;5003340;28;20125;-79
2023/07/27 01:32:38;;;;;;;12.45;5.07;;;13.50;99.90;;;;;;5000523;28;20557;-78
2023/07/27 01:35:09;;;;;;;10.60;4.95;;;13.50;99.90;;;;;;4988574;28;20033;-79
2023/07/27 01:37:37;;;;;;;12.13;5.18;;;13.50;99.90;;;;;;5001464;28;20045;-79
2023/07/27 01:40:05;;;;;;;12.18;5.25;;;13.50;99.90;;;;;;4987964;28;20060;-79
2023/07/27 01:42:31;;;;;;;10.85;4.72;;;13.50;99.90;;;;;;5004829;28;20049;-79
2023/07/27 01:44:57;;;;;;;12.13;5.30;;;13.50;99.90;;;;;;4984951;28;20050;-79
2023/07/27 01:47:25;;;;;;;10.30;4.95;;;13.50;99.90;;;;;;4998141;28;20042;-79
2023/07/27 01:49:51;;;;;;;11.43;4.95;;;13.50;99.90;;;;;;5004392;28;20122;-79
2023/07/27 01:52:20;;;;;;;12.02;5.28;;;13.50;99.90;;;;;;4985511;28;20048;-79
2023/07/27 01:54:48;;;;;;;9.15;4.40;;;13.50;99.90;;;;;;5002993;28;20549;-79
2023/07/27 01:57:14;;;;;;;11.38;4.88;;;13.50;99.90;;;;;;5001892;28;20578;-79
2023/07/27 01:59:41;;;;;;;10.77;4.70;;;13.50;99.90;;;;;;5001824;28;20045;-79
2023/07/27 02:02:07;;;;;;;11.30;4.90;;;12.90;99.90;;;;;;4998780;28;20107;-79
2023/07/27 02:04:33;;;;;;;12.18;4.95;;;13.50;99.90;;;;;;5016608;28;20061;-79
2023/07/27 02:06:58;;;;;;;11.07;4.70;;;13.50;99.90;;;;;;4999932;28;20483;-79
2023/07/27 02:09:25;;;;;;;10.60;4.72;;;13.50;99.90;;;;;;5002880;28;20037;-79
2023/07/27 02:12:15;;;;;;;11.15;4.85;;;13.50;99.90;;;;;;5006113;28;20403;-79
2023/07/27 02:14:49;;;;;;;12.25;4.88;;;13.50;99.90;;;;;;4990175;28;20041;-78
2023/07/27 02:17:23;;;;;;;10.88;4.63;;;13.60;99.90;;;;;;5005488;28;20034;-79
2023/07/27 02:19:56;;;;;;;11.32;4.78;;;13.60;99.90;;;;;;5001046;28;20096;-79
2023/07/27 02:22:23;;;;;;;11.60;4.78;;;13.60;99.90;;;;;;4989268;28;20045;-79
2023/07/27 02:24:49;;;;;;;12.88;4.65;;;13.60;99.90;;;;;;5004255;28;20053;-79
2023/07/27 02:27:14;;;;;;;10.93;4.75;;;13.60;99.90;;;;;;5003151;28;20052;-79
2023/07/27 02:29:40;;;;;;;11.18;5.03;;;13.60;99.90;;;;;;4966786;28;20072;-79
2023/07/27 02:32:06;;;;;;;9.55;4.25;;;13.60;99.90;;;;;;5005146;28;20046;-79
2023/07/27 02:34:32;;;;;;;10.38;4.30;;;13.60;99.90;;;;;;5004435;28;20034;-79
2023/07/27 02:36:58;;;;;;;10.20;4.82;;;13.60;99.90;;;;;;5003790;28;20053;-79
2023/07/27 02:39:23;;;;;;;8.90;4.22;;;13.60;99.90;;;;;;5006801;28;20076;-79
2023/07/27 02:41:49;;;;;;;11.02;4.75;;;13.60;99.90;;;;;;5007465;28;20108;-78
2023/07/27 02:44:15;;;;;;;10.30;4.53;;;13.60;99.90;;;;;;4990263;28;20124;-79
2023/07/27 02:46:40;;;;;;;9.98;4.65;;;13.60;99.90;;;;;;5002764;28;20062;-79
2023/07/27 02:49:06;;;;;;;11.55;4.93;;;13.60;99.90;;;;;;4989806;28;20523;-79
2023/07/27 02:51:32;;;;;;;12.55;4.70;;;13.60;99.90;;;;;;5003381;28;20081;-79
2023/07/27 02:53:58;;;;;;;10.93;5.05;;;13.60;99.90;;;;;;5008206;28;20145;-79
2023/07/27 02:56:24;;;;;;;11.48;5.57;;;13.60;99.90;;;;;;4989295;28;20522;-79
2023/07/27 02:58:50;;;;;;;12.65;5.15;;;13.60;99.90;;;;;;4975694;28;20411;-79
2023/07/27 03:01:15;;;;;;;10.95;4.85;;;13.60;99.90;;;;;;5005712;28;20116;-79
2023/07/27 03:03:41;;;;;;;11.30;4.93;;;13.60;99.90;;;;;;4990962;28;20393;-79
2023/07/27 03:06:07;;;;;;;9.82;4.60;;;13.60;99.90;;;;;;5007256;28;20042;-78
2023/07/27 03:08:33;;;;;;;10.65;4.72;;;13.50;99.90;;;;;;5004908;28;20511;-79
2023/07/27 03:11:03;;;;;;;10.68;4.95;;;13.60;99.90;;;;;;4988981;28;20145;-79
2023/07/27 03:13:30;;;;;;;10.90;4.95;;;13.50;99.90;;;;;;5007007;28;20033;-79
2023/07/27 03:15:56;;;;;;;10.18;4.72;;;13.60;99.90;;;;;;4990586;28;20068;-79
2023/07/27 03:18:22;;;;;;;10.48;4.55;;;13.50;99.90;;;;;;5004570;28;20037;-78
2023/07/27 03:20:48;;;;;;;10.55;4.88;;;13.60;99.90;;;;;;5006067;28;20049;-79
2023/07/27 03:23:14;;;;;;;10.52;5.25;;;13.60;99.90;;;;;;5001967;28;20048;-79
2023/07/27 03:25:39;;;;;;;10.77;4.90;;;13.60;99.90;;;;;;5004664;28;20140;-79
2023/07/27 03:28:07;;;;;;;12.23;4.85;;;13.60;99.90;;;;;;5004571;28;20411;-79
2023/07/27 03:30:37;;;;;;;11.63;5.20;;;13.60;99.90;;;;;;4989001;28;20407;-79
2023/07/27 03:33:03;;;;;;;10.27;4.45;;;13.60;99.90;;;;;;4988525;28;20034;-79
2023/07/27 03:35:29;;;;;;;10.88;4.93;;;13.60;99.90;;;;;;4990268;28;20387;-79
2023/07/27 03:37:55;;;;;;;10.48;5.20;;;13.60;99.90;;;;;;5003108;28;20200;-79
2023/07/27 03:40:21;;;;;;;11.00;4.85;;;13.70;99.90;;;;;;5001957;28;20042;-79
2023/07/27 03:42:47;;;;;;;9.35;4.85;;;13.70;99.90;;;;;;5003864;28;20125;-78
2023/07/27 03:45:14;;;;;;;10.45;4.95;;;13.70;99.90;;;;;;4987275;28;20044;-78
2023/07/27 03:47:41;;;;;;;11.43;5.57;;;13.70;99.90;;;;;;4990203;28;20092;-78
2023/07/27 03:50:07;;;;;;;10.60;4.95;;;13.70;99.90;;;;;;5005085;28;20492;-79
2023/07/27 03:52:33;;;;;;;12.13;5.32;;;13.80;99.90;;;;;;5003673;28;20117;-78
2023/07/27 03:54:59;;;;;;;11.82;5.15;;;13.80;99.90;;;;;;5002720;28;20136;-80
2023/07/27 03:57:24;;;;;;;11.25;5.15;;;13.80;99.90;;;;;;4988618;28;20071;-78
2023/07/27 03:59:55;;;;;;;11.40;5.53;;;13.80;99.90;;;;;;4989270;28;20046;-79
2023/07/27 04:02:21;;;;;;;11.63;5.50;;;13.80;99.90;;;;;;4989046;28;20041;-78
2023/07/27 04:04:47;;;;;;;11.50;5.38;;;13.80;99.90;;;;;;4986631;28;20041;-78
2023/07/27 04:07:13;;;;;;;12.75;5.60;;;13.80;99.90;;;;;;4987519;28;20049;-78
2023/07/27 04:09:39;;;;;;;11.60;5.63;;;13.80;99.90;;;;;;4988655;28;20042;-79
2023/07/27 04:12:05;;;;;;;11.65;5.35;;;13.90;99.90;;;;;;5003836;28;20038;-79
2023/07/27 04:14:31;;;;;;;11.85;5.82;;;14.00;99.90;;;;;;5005654;28;20502;-78
2023/07/27 04:16:57;;;;;;;11.82;5.70;;;13.90;99.90;;;;;;5005283;28;20052;-79
2023/07/27 04:19:22;;;;;;;11.77;5.45;;;14.00;99.90;;;;;;5004227;28;20037;-78
2023/07/27 04:21:48;;;;;;;12.18;5.50;;;14.00;99.90;;;;;;5004556;28;20041;-78
2023/07/27 04:24:14;;;;;;;12.38;6.18;;;14.10;99.90;;;;;;5005257;28;20128;-78
2023/07/27 04:26:39;;;;;;;14.73;6.10;;;14.10;99.90;;;;;;5000475;28;20049;-79
2023/07/27 04:29:05;;;;;;;12.32;5.35;;;14.10;99.90;;;;;;5003118;28;20038;-79
2023/07/27 04:31:31;;;;;;;11.40;6.07;;;14.10;99.90;;;;;;4983193;28;20033;-79
2023/07/27 04:33:56;;;;;;;11.00;5.53;;;14.10;99.90;;;;;;5000911;28;20104;-79
2023/07/27 04:36:22;;;;;;;11.85;5.78;;;14.10;99.90;;;;;;4970514;28;20049;-79
2023/07/27 04:38:48;;;;;;;13.00;6.45;;;14.10;99.90;;;;;;5003786;28;20049;-80
2023/07/27 04:41:13;;;;;;;12.23;6.07;;;14.20;99.90;;;;;;4982450;28;20044;-79
2023/07/27 04:43:39;;;;;;;10.63;5.63;;;14.20;99.90;;;;;;4987230;28;20056;-79
2023/07/27 04:46:05;;;;;;;14.57;5.97;;;14.20;99.90;;;;;;5001309;28;20520;-79
2023/07/27 04:48:31;;;;;;;12.18;6.10;;;14.20;99.90;;;;;;4986897;28;21629;-79
2023/07/27 04:50:57;;;;;;;12.27;6.38;;;14.20;99.90;;;;;;5003047;28;20045;-80
2023/07/27 04:53:23;;;;;;;12.82;7.13;;;14.20;99.90;;;;;;5001880;28;20034;-80
2023/07/27 04:55:48;;;;;;;14.52;6.80;;;14.20;99.90;;;;;;4986289;28;20563;-80
2023/07/27 04:58:14;;;;;;;12.85;6.75;;;14.20;99.90;;;;;;4966477;28;20044;-79
2023/07/27 05:00:40;;;;;;;13.38;6.85;;;14.20;99.90;;;;;;5000142;28;20495;-79
2023/07/27 05:03:05;;;;;;;14.13;6.93;;;14.20;99.90;;;;;;5021234;28;20069;-79
2023/07/27 05:05:31;;;;;;;13.00;6.80;;;14.20;99.90;;;;;;5003817;28;20127;-81
2023/07/27 05:07:57;;;;;;;12.70;6.65;;;14.20;99.90;;;;;;5004099;28;20053;-80
2023/07/27 05:10:25;;;;;;;13.70;6.68;;;14.20;99.90;;;;;;5003137;28;20033;-80
2023/07/27 05:12:51;;;;;;;12.65;6.68;;;14.20;99.90;;;;;;4986047;28;20525;-80
2023/07/27 05:15:17;;;;;;;13.05;6.97;;;14.20;99.90;;;;;;4970465;28;20044;-80
2023/07/27 05:17:42;;;;;;;13.05;7.03;;;14.20;99.90;;;;;;4985048;28;20046;-81
2023/07/27 05:20:09;;;;;;;14.75;6.82;;;14.30;99.90;;;;;;5001601;28;20131;-81
2023/07/27 05:22:34;;;;;;;15.27;6.82;;;14.20;99.90;;;;;;4985274;28;20042;-82
2023/07/27 05:25:00;;;;;;;13.90;6.78;;;14.20;99.90;;;;;;4985787;28;20050;-81
2023/07/27 05:27:26;;;;;;;15.32;7.05;;;14.20;99.90;;;;;;4985981;28;20132;-81
2023/07/27 05:29:51;;;;;;;12.57;6.38;;;14.20;99.90;;;;;;5013092;28;20042;-82
2023/07/27 05:32:17;;;;;;;12.05;6.47;;;14.20;99.90;;;;;;4968346;28;20053;-81
2023/07/27 05:34:43;;;;;;;13.90;6.20;;;14.20;99.90;;;;;;5004371;28;20034;-81
2023/07/27 05:37:09;;;;;;;11.38;6.22;;;14.20;99.90;;;;;;4988167;28;20041;-81
2023/07/27 05:39:34;;;;;;;11.68;6.25;;;14.30;99.90;;;;;;5004974;28;20143;-81
2023/07/27 05:42:00;;;;;;;12.82;6.45;;;14.30;99.90;;;;;;4985588;28;20091;-81
2023/07/27 05:44:26;;;;;;;12.43;5.65;;;14.30;99.90;;;;;;4988570;28;20396;-81
2023/07/27 05:46:55;;;;;;;11.55;5.97;;;14.30;99.90;;;;;;4989233;28;20048;-81
2023/07/27 05:49:21;;;;;;;12.95;6.63;;;14.30;99.90;;;;;;5008299;28;20046;-81
2023/07/27 05:51:47;;;;;;;11.52;5.63;;;14.30;99.90;;;;;;5007271;28;20040;-81
2023/07/27 05:54:13;;;;;;;10.80;5.57;;;14.30;99.90;;;;;;4991361;28;20173;-82
2023/07/27 05:56:40;;;;;;;11.25;5.63;;;14.30;99.90;;;;;;5007901;28;20427;-82
2023/07/27 05:59:06;;;;;;;11.20;5.25;;;14.10;99.90;;;;;;4992681;28;20403;-81
2023/07/27 06:01:31;;;;;;;11.50;5.53;;;14.30;99.90;;;;;;5007799;28;20045;-81
2023/07/27 06:04:00;;;;;;;11.48;5.65;;;;;;;;;;5007037;28;20044;-82
2023/07/27 06:06:26;;;;;;;11.35;5.32;;;14.20;99.90;;;;;;5006483;28;20411;-81
2023/07/27 06:08:53;;;;;;;11.13;5.78;;;14.20;99.90;;;;;;5003488;28;20042;-81
2023/07/27 06:11:19;;;;;;;11.52;5.50;;;14.20;99.90;;;;;;4968843;28;20372;-81
2023/07/27 06:13:46;;;;;;;10.95;5.72;;;14.20;99.90;;;;;;4955892;28;20255;-81
2023/07/27 06:16:12;;;;;;;10.75;5.28;;;14.30;99.90;;;;;;4969084;28;20034;-81
2023/07/27 06:18:38;;;;;;;12.45;6.03;;;14.30;99.90;;;;;;4989689;28;20053;-80
2023/07/27 06:21:03;;;;;;;10.23;5.10;;;14.40;99.90;;;;;;5005304;28;20045;-81
2023/07/27 06:23:29;;;;;;;11.13;5.40;;;14.40;99.90;;;;;;4977482;28;20042;-81
2023/07/27 06:25:56;;;;;;;11.57;5.78;;;14.50;99.90;;;;;;4991592;28;20057;-81
2023/07/27 06:28:22;;;;;;;12.88;5.65;;;14.50;99.90;;;;;;5007418;28;20053;-81
2023/07/27 06:30:48;;;;;;;12.20;6.03;;;14.60;99.90;;;;;;4992356;28;20057;-81
2023/07/27 06:33:14;;;;;;;12.18;6.00;;;14.70;99.90;;;;;;4992855;28;20116;-81
2023/07/27 06:35:40;;;;;;;12.48;6.15;;;14.80;99.90;;;;;;4990122;28;20128;-81
2023/07/27 06:38:05;;;;;;;11.18;5.32;;;14.80;99.90;;;;;;5009260;28;20041;-82
2023/07/27 06:40:31;;;;;;;12.10;6.10;;;15.00;99.90;;;;;;4989004;28;20045;-81
2023/07/27 06:42:57;;;;;;;11.88;5.90;;;15.00;99.90;;;;;;4999967;28;20140;-81
2023/07/27 06:45:23;;;;;;;10.98;5.97;;;15.10;99.90;;;;;;4987874;28;20049;-81
2023/07/27 06:47:48;;;;;;;11.07;5.47;;;15.20;99.90;;;;;;5007070;28;20049;-81
2023/07/27 06:50:14;;;;;;;11.35;5.72;;;15.30;99.90;;;;;;5025578;28;20080;-81
2023/07/27 06:52:40;;;;;;;11.15;5.22;;;15.40;99.90;;;;;;5010816;28;20514;-81
2023/07/27 06:55:06;;;;;;;10.95;5.40;;;15.50;99.90;;;;;;4991124;28;20507;-80
2023/07/27 06:57:31;;;;;;;11.18;5.68;;;15.60;99.90;;;;;;4991028;28;20037;-80
2023/07/27 06:59:57;;;;;;;11.57;5.50;;;15.60;99.90;;;;;;4992545;28;20042;-80
2023/07/27 07:02:23;;;;;;;10.40;5.15;;;15.70;99.90;;;;;;5008383;28;20103;-80
2023/07/27 07:04:49;;;;;;;10.95;5.82;;;15.80;99.90;;;;;;5008892;28;20079;-80
2023/07/27 07:07:15;;;;;;;10.32;4.90;;;15.80;99.90;;;;;;4974334;28;20577;-81
2023/07/27 07:09:41;;;;;;;10.52;4.97;;;15.80;99.90;;;;;;4977498;28;20025;-80
2023/07/27 07:12:07;;;;;;;11.20;4.90;;;15.80;99.90;;;;;;4972924;28;20575;-80
2023/07/27 07:14:33;;;;;;;9.93;4.80;;;15.80;99.90;;;;;;5005239;28;20052;-80
2023/07/27 07:16:59;;;;;;;10.52;4.82;;;15.80;99.90;;;;;;4972871;28;20495;-80
2023/07/27 07:19:25;;;;;;;10.52;5.10;;;15.80;99.90;;;;;;5028260;28;20037;-80
2023/07/27 07:21:51;;;;;;;10.55;4.70;;;15.70;99.90;;;;;;4997772;28;20507;-80
2023/07/27 07:24:16;;;;;;;10.23;4.85;;;15.60;99.90;;;;;;4995685;28;20037;-80
2023/07/27 07:26:42;;;;;;;10.00;4.78;;;15.60;99.90;;;;;;5008300;28;20392;-80
2023/07/27 07:29:08;;;;;;;9.75;4.82;;;15.50;99.90;;;;;;4975733;28;20052;-81
2023/07/27 07:31:34;;;;;;;10.48;5.00;;;15.50;99.90;;;;;;4991834;28;21147;-80
2023/07/27 07:33:59;;;;;;;9.73;4.70;;;15.50;99.90;;;;;;4992587;28;20041;-80
2023/07/27 07:36:25;;;;;;;9.80;4.90;;;15.50;99.90;;;;;;5006858;28;20041;-80
2023/07/27 07:38:51;;;;;;;9.68;4.75;;;15.50;99.90;;;;;;5008503;28;20049;-80
2023/07/27 07:41:17;;;;;;;10.18;4.88;;;15.50;99.90;;;;;;5007922;28;20072;-80
2023/07/27 07:43:43;;;;;;;10.23;5.00;;;15.50;99.90;;;;;;4988671;28;20080;-80
2023/07/27 07:46:13;;;;;;;10.55;5.65;;;15.50;99.90;;;;;;5002039;28;20560;-80
2023/07/27 07:48:39;;;;;;;9.98;5.00;;;15.50;99.90;;;;;;4993446;28;20112;-80
2023/07/27 07:51:11;;;;;;;10.38;5.53;;;15.50;99.90;;;;;;4974119;28;20475;-80
2023/07/27 07:53:37;;;;;;;11.30;5.32;;;15.50;99.90;;;;;;4990917;28;20063;-80
2023/07/27 07:56:04;;;;;;;10.93;5.38;;;15.60;99.90;;;;;;5003524;28;20490;-80
2023/07/27 07:58:30;;;;;;;10.05;4.68;;;15.70;99.90;;;;;;5005611;28;20410;-80
2023/07/27 08:00:56;;;;;;;8.85;4.60;;;15.80;99.90;;;;;;4990026;28;20033;-80
2023/07/27 08:03:23;;;;;;;9.05;4.35;;;15.90;99.90;;;;;;5005903;28;20399;-80
2023/07/27 08:05:48;;;;;;;9.43;4.07;;;16.00;99.90;;;;;;4988201;28;20801;-81
2023/07/27 08:08:14;;;;;;;9.70;4.30;;;16.10;99.90;;;;;;4966881;28;20124;-80
2023/07/27 08:10:40;;;;;;;9.45;4.05;;;16.20;99.90;;;;;;5022241;28;20041;-80
2023/07/27 08:13:05;;;;;;;8.77;4.15;;;16.20;99.90;;;;;;5007250;28;20499;-81
2023/07/27 08:15:31;;;;;;;8.63;3.75;;;16.30;99.90;;;;;;4999959;28;20512;-81
2023/07/27 08:17:57;;;;;;;9.25;3.63;;;16.30;99.90;;;;;;4981247;28;20808;-81
2023/07/27 08:20:23;;;;;;;8.30;3.67;;;16.30;99.90;;;;;;4971370;28;20512;-80
2023/07/27 08:22:48;;;;;;;8.27;3.45;;;16.30;99.90;;;;;;5007629;28;20499;-81
2023/07/27 08:25:17;;;;;;;8.35;3.83;;;16.30;99.90;;;;;;4987445;28;20066;-80
2023/07/27 08:27:43;;;;;;;8.18;3.30;;;16.30;99.90;;;;;;4989524;28;20064;-81
2023/07/27 08:30:09;;;;;;;7.97;3.25;;;16.30;99.90;;;;;;4999769;28;20609;-81
2023/07/27 08:32:34;;;;;;;8.02;3.17;;;16.30;99.90;;;;;;5017307;28;20530;-81
2023/07/27 08:35:00;;;;;;;8.13;3.20;;;16.40;99.90;;;;;;5000797;28;20125;-81
2023/07/27 08:37:26;;;;;;;7.47;3.05;;;16.50;99.90;;;;;;5002814;28;20041;-81
2023/07/27 08:39:52;;;;;;;7.32;2.83;;;16.50;99.90;;;;;;4983872;28;20042;-81
2023/07/27 08:42:19;;;;;;;7.88;3.03;;;16.50;99.90;;;;;;5003421;28;20070;-80
2023/07/27 08:44:46;;;;;;;7.07;2.75;;;16.50;99.90;;;;;;4997010;28;20038;-81
2023/07/27 08:47:12;;;;;;;7.57;3.05;;;16.60;99.90;;;;;;4980471;28;20046;-81
2023/07/27 08:49:42;;;;;;;6.85;2.55;;;16.60;99.90;;;;;;5001856;28;20033;-81
2023/07/27 08:52:11;;;;;;;6.68;2.78;;;16.60;99.90;;;;;;4970067;28;20037;-81
2023/07/27 08:54:37;;;;;;;7.28;2.92;;;16.60;99.90;;;;;;5018897;28;20816;-80
2023/07/27 08:57:02;;;;;;;7.10;2.72;;;16.60;99.90;;;;;;4977380;28;20042;-81
2023/07/27 08:59:28;;;;;;;7.30;3.30;;;16.60;99.90;;;;;;4997587;28;20037;-80
2023/07/27 09:01:54;;;;;;;8.20;3.35;;;16.60;99.90;;;;;;4986517;28;20052;-80
2023/07/27 09:04:20;;;;;;;8.35;3.22;;;16.60;99.90;;;;;;4988406;28;20038;-81
2023/07/27 09:06:49;;;;;;;7.40;3.40;;;16.60;99.90;;;;;;4987226;28;20624;-81
2023/07/27 09:09:25;;;;;;;8.18;3.60;;;16.60;99.90;;;;;;4982664;28;20123;-81
2023/07/27 09:11:51;;;;;;;7.47;3.22;;;16.60;99.90;;;;;;4989672;28;20138;-82
2023/07/27 09:14:19;;;;;;;8.18;3.80;;;16.60;99.90;;;;;;5002494;28;20160;-81
2023/07/27 09:16:46;;;;;;;7.43;3.45;;;16.60;99.90;;;;;;4994268;28;20046;-81
2023/07/27 09:19:12;;;;;;;7.90;3.95;;;16.60;99.90;;;;;;4983071;28;20046;-80
2023/07/27 09:21:44;;;;;;;8.43;4.15;;;16.60;99.90;;;;;;5005717;28;20054;-80
2023/07/27 09:24:14;;;;;;;9.30;4.55;;;16.60;99.90;;;;;;5004703;28;20042;-79
2023/07/27 09:26:48;;;;;;;8.65;4.13;;;16.60;99.90;;;;;;5020424;28;20054;-80
2023/07/27 09:29:21;;;;;;;9.50;3.80;;;16.70;99.90;;;;;;5006398;28;20049;-80
2023/07/27 09:31:49;;;;;;;8.00;3.83;;;16.90;99.90;;;;;;5006497;28;20053;-80
2023/07/27 09:34:16;;;;;;;8.20;4.22;;;17.10;99.90;;;;;;4993344;28;20458;-80
2023/07/27 09:36:43;;;;;;;7.60;3.60;;;17.10;99.90;;;;;;4992313;28;20030;-80
2023/07/27 09:39:09;;;;;;;8.18;3.70;;;17.20;99.90;;;;;;4992248;28;20048;-81
2023/07/27 09:41:36;;;;;;;7.60;3.80;;;17.20;99.90;;;;;;4990268;28;20111;-80
2023/07/27 09:44:02;;;;;;;7.53;4.00;;;17.20;99.90;;;;;;4992870;28;20046;-80
2023/07/27 09:46:29;;;;;;;8.75;4.15;;;17.20;99.90;;;;;;4999766;28;20060;-81
2023/07/27 09:48:57;;;;;;;8.10;3.72;;;17.20;99.90;;;;;;5000470;28;20097;-81
2023/07/27 09:51:26;;;;;;;8.63;3.80;;;17.30;99.90;;;;;;4986832;28;20042;-80
2023/07/27 09:53:52;;;;;;;7.50;3.60;;;17.30;99.90;;;;;;5018850;28;20045;-80
2023/07/27 09:56:19;;;;;;;7.05;3.30;;;17.30;99.90;;;;;;4989540;28;20692;-80
2023/07/27 09:58:48;;;;;;;6.90;3.10;;;17.30;99.90;;;;;;5000418;28;20092;-80
2023/07/27 10:01:14;;;;;;;7.28;3.30;;;17.20;99.90;;;;;;4985563;28;20781;-81
2023/07/27 10:03:40;;;;;;;7.47;3.20;;;17.20;99.90;;;;;;4989441;28;20120;-80
2023/07/27 10:06:06;;;;;;;7.40;3.53;;;17.10;99.90;;;;;;4987976;28;20033;-80
2023/07/27 10:08:33;;;;;;;8.10;3.42;;;17.10;99.90;;;;;;5006225;28;20038;-80
2023/07/27 10:11:00;;;;;;;7.75;3.35;;;17.10;99.90;;;;;;5006298;28;20042;-80
2023/07/27 10:13:26;;;;;;;7.45;3.40;;;17.20;99.90;;;;;;5019469;28;20077;-80
2023/07/27 10:15:53;;;;;;;8.10;3.70;;;17.20;99.90;;;;;;5005246;28;20042;-80
2023/07/27 10:18:27;;;;;;;6.85;3.08;;;17.30;99.90;;;;;;5009044;28;20121;-80
2023/07/27 10:20:57;;;;;;;6.95;3.03;;;17.30;99.90;;;;;;4990687;28;20499;-80
2023/07/27 10:23:31;;;;;;;6.85;2.90;;;17.40;99.90;;;;;;5006602;28;20049;-81
2023/07/27 10:26:00;;;;;;;7.03;3.15;;;17.50;99.90;;;;;;5002637;28;20054;-81
2023/07/27 10:28:38;;;;;;;6.80;2.78;;;17.40;99.90;;;;;;4997082;28;20326;-81
2023/07/27 10:31:23;;;;;;;7.10;3.10;;;17.40;99.90;;;;;;5006885;28;20113;-81
2023/07/27 10:34:00;;;;;;;6.15;2.65;;;17.40;99.90;;;;;;5008348;28;20565;-80
2023/07/27 10:36:58;;;;;;;6.32;2.83;;;17.40;99.90;;;;;;5002320;28;20193;-81
2023/07/27 10:39:32;;;;;;;5.88;2.40;;;17.40;99.90;;;;;;5002071;28;20046;-80
2023/07/27 10:42:00;;;;;;;6.72;2.78;;;17.30;99.90;;;;;;4989689;28;20045;-80
2023/07/27 10:44:46;;;;;;;5.90;2.65;;;17.40;99.90;;;;;;5006116;28;20037;-81
2023/07/27 10:47:21;;;;;;;6.25;2.70;;;17.30;99.90;;;;;;4966696;28;20041;-81
2023/07/27 10:49:48;;;;;;;6.07;2.60;;;17.30;99.90;;;;;;4979929;28;20048;-80
2023/07/27 10:52:25;;;;;;;7.10;2.60;;;17.30;99.90;;;;;;4998013;28;20200;-81
2023/07/27 10:54:52;;;;;;;5.70;2.30;;;17.40;99.90;;;;;;4997013;28;20073;-81
2023/07/27 10:57:19;;;;;;;6.32;2.70;;;17.30;99.90;;;;;;4985420;28;20042;-80
2023/07/27 10:59:47;;;;;;;6.15;2.75;;;17.30;99.90;;;;;;5005208;28;20068;-80
2023/07/27 11:02:31;;;;;;;6.55;2.55;;;17.40;99.90;;;;;;5003069;28;20034;-80
2023/07/27 11:04:59;;;;;;;5.82;2.55;;;17.40;99.90;;;;;;4983795;28;20097;-80
2023/07/27 11:07:26;;;;;;;5.68;2.40;;;17.40;99.90;;;;;;5001572;28;20068;-81
2023/07/27 11:09:51;;;;;;;5.38;2.35;;;17.40;99.90;;;;;;4986468;28;20042;-82
2023/07/27 11:12:17;;;;;;;6.00;2.45;;;17.40;99.90;;;;;;5002193;28;20030;-83
2023/07/27 11:14:43;;;;;;;6.38;2.80;;;17.40;99.90;;;;;;4966955;28;20042;-84
2023/07/27 11:17:11;;;;;;;7.05;2.70;;;17.50;99.90;;;;;;4994555;28;20038;-83
2023/07/27 11:19:37;;;;;;;6.40;2.70;;;17.50;99.90;;;;;;4995617;28;20131;-82
2023/07/27 11:22:03;;;;;;;6.25;2.50;;;17.50;99.90;;;;;;5003752;28;20034;-82
2023/07/27 11:24:30;;;;;;;6.45;2.60;;;17.40;99.90;;;;;;5005038;28;20045;-82
2023/07/27 11:26:56;;;;;;;5.38;2.30;;;17.50;99.90;;;;;;4987200;28;20120;-83
2023/07/27 11:29:22;;;;;;;6.68;2.85;;;17.40;99.90;;;;;;5008369;28;20204;-83
2023/07/27 11:31:54;;;;;;;6.05;2.70;;;17.40;99.90;;;;;;4976917;28;20037;-84
2023/07/27 11:34:25;;;;;;;6.40;2.63;;;17.30;99.90;;;;;;5006410;28;20040;-83
2023/07/27 11:36:56;;;;;;;5.90;2.40;;;17.30;99.90;;;;;;5005938;28;20037;-84
2023/07/27 11:39:22;;;;;;;6.72;2.88;;;17.30;99.90;;;;;;4990924;28;20037;-82
2023/07/27 11:41:49;;;;;;;7.82;3.28;;;17.30;99.90;;;;;;5005287;28;20060;-81
2023/07/27 11:44:17;;;;;;;7.05;3.25;;;17.30;99.90;;;;;;4986744;28;20071;-83
2023/07/27 11:46:47;;;;;;;7.68;3.40;;;17.40;99.90;;;;;;4987725;28;20100;-82
2023/07/27 11:49:16;;;;;;;7.35;3.53;;;17.50;99.90;;;;;;4994259;28;20033;-82
2023/07/27 11:51:45;;;;;;;7.63;3.65;;;17.50;99.90;;;;;;5037012;28;20104;-83
2023/07/27 11:54:20;;;;;;;6.90;3.20;;;17.60;99.90;;;;;;5019167;28;20056;-82
2023/07/27 11:56:50;;;;;;;7.25;3.22;;;17.70;99.90;;;;;;5017063;28;20037;-82
2023/07/27 11:59:16;;;;;;;7.90;3.28;;;17.70;99.90;;;;;;5012916;28;20035;-81
2023/07/27 12:01:42;;;;;;;7.40;3.25;;;17.70;99.90;;;;;;5004094;28;20049;-82
2023/07/27 12:04:10;;;;;;;7.18;3.20;;;17.80;99.90;;;;;;5020715;28;20033;-82
2023/07/27 12:06:37;;;;;;;6.72;3.00;;;17.80;99.90;;;;;;5018283;28;20049;-82
2023/07/27 12:09:06;;;;;;;7.32;3.47;;;17.80;99.90;;;;;;4990084;28;20033;-82
2023/07/27 12:11:33;;;;;;;6.80;3.15;;;17.90;99.90;;;;;;5004670;28;20052;-82
2023/07/27 12:14:06;;;;;;;7.25;3.40;;;17.90;99.90;;;;;;5033884;28;20320;-82
2023/07/27 12:16:40;;;;;;;7.53;3.05;;;17.80;99.90;;;;;;5016442;28;20037;-82
2023/07/27 12:19:08;;;;;;;6.50;2.78;;;17.80;99.90;;;;;;5004097;28;20030;-82
2023/07/27 12:21:43;;;;;;;7.15;3.28;;;17.80;99.90;;;;;;5005241;28;20017;-81
2023/07/27 12:24:10;;;;;;;7.15;3.17;;;17.80;99.90;;;;;;5021107;28;20089;-82
2023/07/27 12:26:38;;;;;;;7.35;3.60;;;17.90;99.90;;;;;;5003506;28;21456;-81
2023/07/27 12:29:04;;;;;;;7.18;3.17;;;17.80;99.90;;;;;;5014291;28;20096;-82
2023/07/27 12:31:31;;;;;;;9.38;3.60;;;17.90;99.90;;;;;;5013643;28;20305;-80
2023/07/27 12:33:57;;;;;;;7.70;3.50;;;17.90;99.90;;;;;;5018123;28;20045;-81
2023/07/27 12:36:22;;;;;;;6.95;3.08;;;17.90;99.90;;;;;;4987031;28;20067;-81
2023/07/27 12:38:48;;;;;;;7.32;3.15;;;18.00;99.90;;;;;;4986798;28;20041;-82
2023/07/27 12:41:14;;;;;;;8.13;3.05;;;18.10;99.90;;;;;;4986140;28;20033;-82